DCM141 KBNA-KAUS
Flight info
| Callsign | DCM141 |
|---|---|
| Flight time | 2h 10m |
| Altitude | 40000 |
| Route | DRURY4 JALAR MLU MNURE WLEEE7 |
| Aircraft | FA50/M-SDFGHIM1RWXY/H |
Departure
| Time | 2026-05-07 17:40 |
|---|---|
| Airport | Nashville International Airport (KBNA) |
Arrival
| Time | 2026-05-07 19:51 |
|---|---|
| Airport | Austin Bergstrom International Airport (KAUS) |
| Time | Latitude | Longitude | Altitude | Speed | Heading |
|---|---|---|---|---|---|
| 2026-05-07 17:36 | 36.11286 | -86.68080 | 575 ft | 0 kts | 339° |
| 2026-05-07 17:37 | 36.11287 | -86.68081 | 575 ft | 1 kts | 339° |
| 2026-05-07 17:37 | 36.11292 | -86.68107 | 575 ft | 7 kts | 244° |
| 2026-05-07 17:38 | 36.11227 | -86.68165 | 577 ft | 18 kts | 202° |
| 2026-05-07 17:38 | 36.11102 | -86.68263 | 570 ft | 24 kts | 219° |
| 2026-05-07 17:38 | 36.10953 | -86.68409 | 571 ft | 31 kts | 201° |
| 2026-05-07 17:38 | 36.10749 | -86.68488 | 568 ft | 31 kts | 198° |
| 2026-05-07 17:39 | 36.10529 | -86.68576 | 571 ft | 36 kts | 198° |
| 2026-05-07 17:39 | 36.10342 | -86.68654 | 571 ft | 17 kts | 215° |
| 2026-05-07 17:39 | 36.10328 | -86.68722 | 571 ft | 12 kts | 290° |
| 2026-05-07 17:39 | 36.10399 | -86.68771 | 568 ft | 14 kts | 17° |
| 2026-05-07 17:40 | 36.10673 | -86.68660 | 565 ft | 76 kts | 18° |
| 2026-05-07 17:40 | 36.11356 | -86.68392 | 670 ft | 116 kts | 16° |
| 2026-05-07 17:40 | 36.12131 | -86.68043 | 1188 ft | 128 kts | 20° |
| 2026-05-07 17:40 | 36.13032 | -86.67685 | 1603 ft | 150 kts | 5° |
| 2026-05-07 17:41 | 36.14197 | -86.67798 | 1978 ft | 191 kts | 346° |
| 2026-05-07 17:41 | 36.15548 | -86.68345 | 2623 ft | 219 kts | 343° |
| 2026-05-07 17:41 | 36.17180 | -86.68761 | 2842 ft | 258 kts | 353° |
| 2026-05-07 17:41 | 36.18916 | -86.69042 | 4236 ft | 244 kts | 350° |
| 2026-05-07 17:42 | 36.20582 | -86.69496 | 5330 ft | 250 kts | 346° |
| 2026-05-07 17:42 | 36.22316 | -86.70002 | 6205 ft | 260 kts | 345° |
| 2026-05-07 17:42 | 36.24093 | -86.70467 | 7218 ft | 262 kts | 344° |
| 2026-05-07 17:42 | 36.25783 | -86.71258 | 8129 ft | 259 kts | 324° |
| 2026-05-07 17:43 | 36.27127 | -86.72714 | 9094 ft | 256 kts | 306° |
| 2026-05-07 17:43 | 36.27997 | -86.74620 | 10031 ft | 254 kts | 288° |
| 2026-05-07 17:43 | 36.28310 | -86.76806 | 10684 ft | 265 kts | 270° |
| 2026-05-07 17:43 | 36.28114 | -86.79065 | 11669 ft | 261 kts | 262° |
| 2026-05-07 17:44 | 36.27729 | -86.81247 | 12694 ft | 259 kts | 257° |
| 2026-05-07 17:44 | 36.26921 | -86.83258 | 13651 ft | 266 kts | 239° |
| 2026-05-07 17:44 | 36.25555 | -86.84851 | 14487 ft | 280 kts | 223° |
| 2026-05-07 17:44 | 36.24390 | -86.85605 | 14932 ft | 291 kts | 214° |
| 2026-05-07 17:45 | 36.22444 | -86.86463 | 15639 ft | 301 kts | 208° |
| 2026-05-07 17:45 | 36.20422 | -86.87198 | 16357 ft | 303 kts | 208° |
| 2026-05-07 17:45 | 36.18430 | -86.88014 | 17154 ft | 301 kts | 211° |
| 2026-05-07 17:45 | 36.16453 | -86.88896 | 17860 ft | 304 kts | 211° |
| 2026-05-07 17:46 | 36.14446 | -86.89763 | 18565 ft | 307 kts | 210° |
| 2026-05-07 17:46 | 36.12418 | -86.90603 | 19240 ft | 308 kts | 211° |
| 2026-05-07 17:46 | 36.10394 | -86.91455 | 19982 ft | 306 kts | 212° |
| 2026-05-07 17:46 | 36.08381 | -86.92326 | 20657 ft | 308 kts | 212° |
| 2026-05-07 17:47 | 36.06345 | -86.93170 | 21303 ft | 309 kts | 212° |
| 2026-05-07 17:47 | 36.04304 | -86.94018 | 21949 ft | 309 kts | 213° |
| 2026-05-07 17:47 | 36.02272 | -86.94880 | 22619 ft | 309 kts | 213° |
| 2026-05-07 17:47 | 36.00223 | -86.95749 | 22980 ft | 315 kts | 212° |
| 2026-05-07 17:48 | 35.98153 | -86.96656 | 23368 ft | 317 kts | 213° |
| 2026-05-07 17:48 | 35.96053 | -86.97528 | 23819 ft | 319 kts | 212° |
| 2026-05-07 17:48 | 35.93939 | -86.98379 | 24198 ft | 320 kts | 213° |
| 2026-05-07 17:48 | 35.91835 | -86.99265 | 24586 ft | 319 kts | 214° |
| 2026-05-07 17:49 | 35.89742 | -87.00165 | 24972 ft | 319 kts | 214° |
| 2026-05-07 17:49 | 35.87637 | -87.01057 | 25346 ft | 321 kts | 214° |
| 2026-05-07 17:49 | 35.85521 | -87.01941 | 25726 ft | 322 kts | 214° |
| 2026-05-07 17:49 | 35.83402 | -87.02828 | 26104 ft | 322 kts | 214° |
| 2026-05-07 17:50 | 35.81284 | -87.03721 | 26494 ft | 322 kts | 215° |
| 2026-05-07 17:50 | 35.79177 | -87.04642 | 26853 ft | 317 kts | 218° |
| 2026-05-07 17:50 | 35.77262 | -87.05863 | 27207 ft | 305 kts | 226° |
| 2026-05-07 17:50 | 35.75541 | -87.07341 | 27567 ft | 300 kts | 230° |
| 2026-05-07 17:51 | 35.73839 | -87.08845 | 27935 ft | 303 kts | 228° |
| 2026-05-07 17:51 | 35.72055 | -87.10265 | 28292 ft | 307 kts | 226° |
| 2026-05-07 17:51 | 35.70239 | -87.11660 | 28574 ft | 307 kts | 227° |
| 2026-05-07 17:51 | 35.68447 | -87.13092 | 28910 ft | 307 kts | 228° |
| 2026-05-07 17:52 | 35.66664 | -87.14546 | 29228 ft | 308 kts | 228° |
| 2026-05-07 17:52 | 35.64862 | -87.15992 | 29557 ft | 310 kts | 227° |
| 2026-05-07 17:52 | 35.63044 | -87.17432 | 29853 ft | 312 kts | 227° |
| 2026-05-07 17:52 | 35.61146 | -87.18797 | 30159 ft | 321 kts | 224° |
| 2026-05-07 17:53 | 35.59127 | -87.20029 | 30410 ft | 326 kts | 222° |
| 2026-05-07 17:53 | 35.57093 | -87.21260 | 30606 ft | 325 kts | 223° |
| 2026-05-07 17:53 | 35.55098 | -87.22554 | 30788 ft | 324 kts | 224° |
| 2026-05-07 17:53 | 35.53103 | -87.23867 | 30983 ft | 326 kts | 224° |
| 2026-05-07 17:54 | 35.51086 | -87.25162 | 31169 ft | 328 kts | 223° |
| 2026-05-07 17:54 | 35.49049 | -87.26447 | 31340 ft | 330 kts | 223° |
| 2026-05-07 17:54 | 35.47011 | -87.27746 | 31489 ft | 330 kts | 223° |
| 2026-05-07 17:54 | 35.44966 | -87.29062 | 31571 ft | 334 kts | 223° |
| 2026-05-07 17:55 | 35.42900 | -87.30387 | 31754 ft | 336 kts | 223° |
| 2026-05-07 17:55 | 35.40825 | -87.31706 | 31956 ft | 336 kts | 223° |
| 2026-05-07 17:55 | 35.38774 | -87.33012 | 32154 ft | 337 kts | 223° |
| 2026-05-07 17:55 | 35.36670 | -87.34354 | 32384 ft | 336 kts | 223° |
| 2026-05-07 17:56 | 35.34598 | -87.35676 | 32650 ft | 335 kts | 223° |
| 2026-05-07 17:56 | 35.32530 | -87.36997 | 32902 ft | 334 kts | 223° |
| 2026-05-07 17:56 | 35.30495 | -87.38292 | 33157 ft | 334 kts | 223° |
| 2026-05-07 17:56 | 35.28437 | -87.39596 | 33440 ft | 333 kts | 223° |
| 2026-05-07 17:57 | 35.26382 | -87.40903 | 33716 ft | 332 kts | 223° |
| 2026-05-07 17:57 | 35.24998 | -87.41784 | 33910 ft | 331 kts | 223° |
| 2026-05-07 17:57 | 35.22295 | -87.43502 | 34253 ft | 330 kts | 223° |
| 2026-05-07 17:57 | 35.20254 | -87.44802 | 34370 ft | 332 kts | 223° |
| 2026-05-07 17:58 | 35.18202 | -87.46108 | 34571 ft | 332 kts | 223° |
| 2026-05-07 17:58 | 35.16148 | -87.47404 | 34769 ft | 333 kts | 222° |
| 2026-05-07 17:58 | 35.14090 | -87.48704 | 34961 ft | 332 kts | 223° |
| 2026-05-07 17:58 | 35.12040 | -87.50004 | 35140 ft | 332 kts | 223° |
| 2026-05-07 17:59 | 35.09994 | -87.51302 | 35321 ft | 331 kts | 223° |
| 2026-05-07 17:59 | 35.07952 | -87.52596 | 35503 ft | 331 kts | 223° |
| 2026-05-07 17:59 | 35.05910 | -87.53888 | 35693 ft | 330 kts | 223° |
| 2026-05-07 17:59 | 35.03867 | -87.55177 | 35851 ft | 330 kts | 223° |
| 2026-05-07 18:00 | 35.01915 | -87.56573 | 36025 ft | 316 kts | 231° |
| 2026-05-07 18:00 | 35.00405 | -87.58405 | 36201 ft | 300 kts | 241° |
| 2026-05-07 18:00 | 34.99211 | -87.60466 | 36322 ft | 296 kts | 245° |
| 2026-05-07 18:00 | 34.98154 | -87.62612 | 36488 ft | 295 kts | 246° |
| 2026-05-07 18:01 | 34.97080 | -87.64744 | 36660 ft | 296 kts | 245° |
| 2026-05-07 18:01 | 34.95952 | -87.66852 | 36672 ft | 298 kts | 244° |
| 2026-05-07 18:01 | 34.94818 | -87.68976 | 36779 ft | 299 kts | 245° |
| 2026-05-07 18:01 | 34.93698 | -87.71110 | 36975 ft | 298 kts | 245° |
| 2026-05-07 18:02 | 34.91467 | -87.75352 | 37338 ft | 297 kts | 245° |
| 2026-05-07 18:02 | 34.90350 | -87.77468 | 37501 ft | 297 kts | 245° |
| 2026-05-07 18:02 | 34.89234 | -87.79584 | 37664 ft | 296 kts | 245° |
| 2026-05-07 18:03 | 34.88120 | -87.81693 | 37832 ft | 296 kts | 245° |
| 2026-05-07 18:03 | 34.87008 | -87.83798 | 37998 ft | 296 kts | 245° |
| 2026-05-07 18:03 | 34.85896 | -87.85902 | 38162 ft | 296 kts | 245° |
| 2026-05-07 18:03 | 34.84766 | -87.88037 | 38330 ft | 295 kts | 245° |
| 2026-05-07 18:04 | 34.83670 | -87.90108 | 38485 ft | 295 kts | 245° |
| 2026-05-07 18:04 | 34.82559 | -87.92207 | 38652 ft | 295 kts | 245° |
| 2026-05-07 18:04 | 34.81447 | -87.94304 | 38804 ft | 295 kts | 245° |
| 2026-05-07 18:04 | 34.80335 | -87.96401 | 38927 ft | 295 kts | 245° |
| 2026-05-07 18:05 | 34.79223 | -87.98497 | 39045 ft | 295 kts | 244° |
| 2026-05-07 18:05 | 34.78108 | -88.00598 | 39172 ft | 295 kts | 244° |
| 2026-05-07 18:05 | 34.76995 | -88.02692 | 39307 ft | 295 kts | 244° |
| 2026-05-07 18:05 | 34.75881 | -88.04789 | 39446 ft | 295 kts | 244° |
| 2026-05-07 18:06 | 34.74767 | -88.06883 | 39570 ft | 295 kts | 244° |
| 2026-05-07 18:06 | 34.73650 | -88.08981 | 39677 ft | 295 kts | 244° |
| 2026-05-07 18:06 | 34.72533 | -88.11079 | 39795 ft | 296 kts | 245° |
| 2026-05-07 18:06 | 34.71424 | -88.13155 | 40039 ft | 290 kts | 244° |
| 2026-05-07 18:07 | 34.70323 | -88.15224 | 40058 ft | 293 kts | 244° |
| 2026-05-07 18:07 | 34.69210 | -88.17320 | 40065 ft | 297 kts | 244° |
| 2026-05-07 18:07 | 34.68078 | -88.19440 | 40066 ft | 301 kts | 244° |
| 2026-05-07 18:08 | 34.65773 | -88.23751 | 40071 ft | 307 kts | 244° |
| 2026-05-07 18:08 | 34.63420 | -88.28152 | 40072 ft | 314 kts | 244° |
| 2026-05-07 18:09 | 34.61021 | -88.32631 | 40076 ft | 319 kts | 244° |
| 2026-05-07 18:09 | 34.58583 | -88.37175 | 40077 ft | 324 kts | 244° |
| 2026-05-07 18:10 | 34.56110 | -88.41783 | 40078 ft | 328 kts | 244° |
| 2026-05-07 18:10 | 34.53603 | -88.46444 | 40079 ft | 332 kts | 244° |
| 2026-05-07 18:11 | 34.51065 | -88.51159 | 40083 ft | 335 kts | 244° |
| 2026-05-07 18:11 | 34.48508 | -88.55902 | 40084 ft | 337 kts | 244° |
| 2026-05-07 18:12 | 34.45940 | -88.60658 | 40072 ft | 337 kts | 243° |
| 2026-05-07 18:12 | 34.43370 | -88.65414 | 40065 ft | 338 kts | 243° |
| 2026-05-07 18:13 | 34.40785 | -88.70190 | 40066 ft | 339 kts | 243° |
| 2026-05-07 18:13 | 34.38193 | -88.74974 | 40067 ft | 340 kts | 243° |
| 2026-05-07 18:14 | 34.35606 | -88.79741 | 40064 ft | 341 kts | 243° |
| 2026-05-07 18:14 | 34.32978 | -88.84577 | 40064 ft | 342 kts | 243° |
| 2026-05-07 18:15 | 34.30379 | -88.89354 | 40082 ft | 342 kts | 243° |
| 2026-05-07 18:15 | 34.27760 | -88.94160 | 40081 ft | 342 kts | 243° |
| 2026-05-07 18:16 | 34.25150 | -88.98944 | 40084 ft | 341 kts | 243° |
| 2026-05-07 18:16 | 34.22532 | -89.03737 | 40085 ft | 341 kts | 243° |
| 2026-05-07 18:17 | 34.19923 | -89.08504 | 40075 ft | 340 kts | 243° |
| 2026-05-07 18:17 | 34.17314 | -89.13271 | 40075 ft | 341 kts | 243° |
| 2026-05-07 18:18 | 34.14689 | -89.18056 | 40076 ft | 342 kts | 243° |
| 2026-05-07 18:18 | 34.12061 | -89.22841 | 40077 ft | 342 kts | 243° |
| 2026-05-07 18:19 | 34.09429 | -89.27626 | 40085 ft | 342 kts | 243° |
| 2026-05-07 18:19 | 34.06799 | -89.32404 | 40086 ft | 342 kts | 243° |
| 2026-05-07 18:20 | 34.04170 | -89.37172 | 40083 ft | 341 kts | 243° |
| 2026-05-07 18:20 | 34.01539 | -89.41935 | 40083 ft | 342 kts | 243° |
| 2026-05-07 18:21 | 33.98904 | -89.46703 | 40083 ft | 342 kts | 243° |
| 2026-05-07 18:21 | 33.96269 | -89.51462 | 40083 ft | 341 kts | 243° |
| 2026-05-07 18:22 | 33.93636 | -89.56212 | 40075 ft | 340 kts | 242° |
| 2026-05-07 18:22 | 33.91002 | -89.60960 | 40076 ft | 342 kts | 242° |
| 2026-05-07 18:23 | 33.88357 | -89.65718 | 40076 ft | 342 kts | 242° |
| 2026-05-07 18:23 | 33.85706 | -89.70482 | 40079 ft | 343 kts | 242° |
| 2026-05-07 18:24 | 33.83054 | -89.75240 | 40076 ft | 342 kts | 242° |
| 2026-05-07 18:24 | 33.80406 | -89.79987 | 40076 ft | 342 kts | 242° |
| 2026-05-07 18:25 | 33.77756 | -89.84731 | 40079 ft | 341 kts | 242° |
| 2026-05-07 18:25 | 33.75109 | -89.89462 | 40078 ft | 341 kts | 242° |
| 2026-05-07 18:26 | 33.72460 | -89.94192 | 40074 ft | 341 kts | 242° |
| 2026-05-07 18:26 | 33.69807 | -89.98921 | 40082 ft | 341 kts | 242° |
| 2026-05-07 18:27 | 33.67154 | -90.03646 | 40085 ft | 341 kts | 242° |
| 2026-05-07 18:27 | 33.64488 | -90.08389 | 40086 ft | 344 kts | 242° |
| 2026-05-07 18:28 | 33.62254 | -90.12356 | 40092 ft | 346 kts | 242° |
| 2026-05-07 18:28 | 33.59555 | -90.17144 | 40092 ft | 346 kts | 242° |
| 2026-05-07 18:29 | 33.56427 | -90.22684 | 40090 ft | 344 kts | 242° |
| 2026-05-07 18:29 | 33.54182 | -90.26657 | 40090 ft | 343 kts | 242° |
| 2026-05-07 18:30 | 33.51502 | -90.31393 | 40086 ft | 343 kts | 242° |
| 2026-05-07 18:30 | 33.48821 | -90.36126 | 40089 ft | 344 kts | 242° |
| 2026-05-07 18:31 | 33.46135 | -90.40860 | 40088 ft | 344 kts | 242° |
| 2026-05-07 18:31 | 33.43444 | -90.45597 | 40093 ft | 344 kts | 242° |
| 2026-05-07 18:32 | 33.40752 | -90.50331 | 40096 ft | 344 kts | 242° |
| 2026-05-07 18:32 | 33.38058 | -90.55059 | 40094 ft | 344 kts | 242° |
| 2026-05-07 18:33 | 33.35361 | -90.59790 | 40090 ft | 344 kts | 242° |
| 2026-05-07 18:33 | 33.32663 | -90.64515 | 40099 ft | 344 kts | 242° |
| 2026-05-07 18:34 | 33.29960 | -90.69242 | 40105 ft | 344 kts | 242° |
| 2026-05-07 18:34 | 33.27257 | -90.73964 | 40105 ft | 344 kts | 242° |
| 2026-05-07 18:35 | 33.24550 | -90.78688 | 40113 ft | 344 kts | 242° |
| 2026-05-07 18:35 | 33.21847 | -90.83396 | 40111 ft | 343 kts | 242° |
| 2026-05-07 18:36 | 33.19149 | -90.88093 | 40111 ft | 343 kts | 242° |
| 2026-05-07 18:36 | 33.16450 | -90.92783 | 40120 ft | 342 kts | 242° |
| 2026-05-07 18:37 | 33.13751 | -90.97468 | 40104 ft | 343 kts | 241° |
| 2026-05-07 18:37 | 33.11024 | -91.02199 | 40105 ft | 349 kts | 241° |
| 2026-05-07 18:38 | 33.08256 | -91.06988 | 40109 ft | 351 kts | 241° |
| 2026-05-07 18:38 | 33.05486 | -91.11777 | 40109 ft | 350 kts | 241° |
| 2026-05-07 18:39 | 33.02750 | -91.16501 | 40109 ft | 347 kts | 241° |
| 2026-05-07 18:39 | 33.00017 | -91.21217 | 40089 ft | 345 kts | 241° |
| 2026-05-07 18:40 | 32.97284 | -91.25924 | 40073 ft | 346 kts | 241° |
| 2026-05-07 18:40 | 32.94545 | -91.30637 | 40062 ft | 347 kts | 241° |
| 2026-05-07 18:41 | 32.91790 | -91.35370 | 40054 ft | 348 kts | 241° |
| 2026-05-07 18:41 | 32.89029 | -91.40107 | 40053 ft | 348 kts | 241° |
| 2026-05-07 18:42 | 32.86272 | -91.44832 | 40041 ft | 348 kts | 241° |
| 2026-05-07 18:42 | 32.83505 | -91.49571 | 40051 ft | 350 kts | 241° |
| 2026-05-07 18:43 | 32.80753 | -91.54273 | 40080 ft | 351 kts | 241° |
| 2026-05-07 18:43 | 32.77964 | -91.59035 | 40095 ft | 350 kts | 241° |
| 2026-05-07 18:44 | 32.75234 | -91.63811 | 40120 ft | 348 kts | 241° |
| 2026-05-07 18:44 | 32.72444 | -91.68518 | 40113 ft | 348 kts | 240° |
| 2026-05-07 18:45 | 32.69671 | -91.73233 | 40112 ft | 349 kts | 241° |
| 2026-05-07 18:45 | 32.66884 | -91.77955 | 40117 ft | 350 kts | 241° |
| 2026-05-07 18:46 | 32.64090 | -91.82683 | 40108 ft | 350 kts | 241° |
| 2026-05-07 18:46 | 32.61292 | -91.87412 | 40108 ft | 350 kts | 241° |
| 2026-05-07 18:47 | 32.58518 | -91.92096 | 40109 ft | 350 kts | 240° |
| 2026-05-07 18:47 | 32.55729 | -91.96800 | 40109 ft | 352 kts | 240° |
| 2026-05-07 18:48 | 32.52905 | -92.01555 | 40108 ft | 353 kts | 240° |
| 2026-05-07 18:48 | 32.50178 | -92.06367 | 40108 ft | 350 kts | 243° |
| 2026-05-07 18:49 | 32.47671 | -92.11295 | 40109 ft | 349 kts | 243° |
| 2026-05-07 18:49 | 32.45077 | -92.16156 | 40108 ft | 349 kts | 243° |
| 2026-05-07 18:50 | 32.42520 | -92.21036 | 40106 ft | 349 kts | 243° |
| 2026-05-07 18:50 | 32.39944 | -92.25906 | 40107 ft | 349 kts | 243° |
| 2026-05-07 18:51 | 32.37369 | -92.30784 | 40105 ft | 350 kts | 243° |
| 2026-05-07 18:51 | 32.34782 | -92.35673 | 40102 ft | 351 kts | 242° |
| 2026-05-07 18:52 | 32.32189 | -92.40567 | 40076 ft | 351 kts | 242° |
| 2026-05-07 18:52 | 32.29592 | -92.45463 | 40100 ft | 352 kts | 242° |
| 2026-05-07 18:53 | 32.26989 | -92.50365 | 40092 ft | 352 kts | 242° |
| 2026-05-07 18:53 | 32.24386 | -92.55259 | 40091 ft | 352 kts | 242° |
| 2026-05-07 18:54 | 32.21784 | -92.60145 | 40097 ft | 351 kts | 242° |
| 2026-05-07 18:54 | 32.19181 | -92.65026 | 40102 ft | 351 kts | 242° |
| 2026-05-07 18:55 | 32.16576 | -92.69906 | 40094 ft | 352 kts | 242° |
| 2026-05-07 18:55 | 32.13964 | -92.74792 | 40091 ft | 353 kts | 242° |
| 2026-05-07 18:56 | 32.11338 | -92.79698 | 40091 ft | 354 kts | 242° |
| 2026-05-07 18:56 | 32.08707 | -92.84607 | 40091 ft | 353 kts | 242° |
| 2026-05-07 18:57 | 32.06084 | -92.89495 | 40091 ft | 352 kts | 242° |
| 2026-05-07 18:57 | 32.03464 | -92.94371 | 40089 ft | 351 kts | 242° |
| 2026-05-07 18:58 | 32.00849 | -92.99232 | 40090 ft | 351 kts | 242° |
| 2026-05-07 18:58 | 31.98228 | -93.04096 | 40088 ft | 352 kts | 242° |
| 2026-05-07 18:59 | 31.95620 | -93.08932 | 40088 ft | 352 kts | 242° |
| 2026-05-07 18:59 | 31.92989 | -93.13801 | 40085 ft | 353 kts | 242° |
| 2026-05-07 19:00 | 31.90357 | -93.18670 | 40082 ft | 353 kts | 242° |
| 2026-05-07 19:00 | 31.87720 | -93.23538 | 40079 ft | 353 kts | 242° |
| 2026-05-07 19:01 | 31.85084 | -93.28402 | 40082 ft | 353 kts | 242° |
| 2026-05-07 19:01 | 31.82445 | -93.33262 | 40084 ft | 353 kts | 242° |
| 2026-05-07 19:02 | 31.79805 | -93.38119 | 40084 ft | 353 kts | 242° |
| 2026-05-07 19:02 | 31.77160 | -93.42977 | 40085 ft | 353 kts | 242° |
| 2026-05-07 19:03 | 31.74517 | -93.47830 | 40084 ft | 352 kts | 241° |
| 2026-05-07 19:03 | 31.71866 | -93.52688 | 40089 ft | 354 kts | 241° |
| 2026-05-07 19:04 | 31.69210 | -93.57549 | 40084 ft | 353 kts | 241° |
| 2026-05-07 19:04 | 31.66561 | -93.62391 | 40084 ft | 352 kts | 241° |
| 2026-05-07 19:05 | 31.63913 | -93.67227 | 40082 ft | 352 kts | 241° |
| 2026-05-07 19:05 | 31.61265 | -93.72054 | 40081 ft | 351 kts | 241° |
| 2026-05-07 19:06 | 31.58615 | -93.76881 | 40082 ft | 352 kts | 241° |
| 2026-05-07 19:06 | 31.54634 | -93.84121 | 40082 ft | 353 kts | 241° |
| 2026-05-07 19:07 | 31.51970 | -93.88957 | 40079 ft | 354 kts | 241° |
| 2026-05-07 19:07 | 31.49298 | -93.93802 | 40078 ft | 354 kts | 241° |
| 2026-05-07 19:08 | 31.46621 | -93.98650 | 40084 ft | 354 kts | 241° |
| 2026-05-07 19:08 | 31.43944 | -94.03492 | 40068 ft | 355 kts | 241° |
| 2026-05-07 19:09 | 31.41253 | -94.08352 | 40072 ft | 356 kts | 241° |
| 2026-05-07 19:09 | 31.38553 | -94.13224 | 40072 ft | 356 kts | 240° |
| 2026-05-07 19:10 | 31.35856 | -94.18083 | 40072 ft | 355 kts | 241° |
| 2026-05-07 19:10 | 31.33165 | -94.22927 | 40064 ft | 355 kts | 240° |
| 2026-05-07 19:11 | 31.30472 | -94.27766 | 40065 ft | 355 kts | 240° |
| 2026-05-07 19:11 | 31.27777 | -94.32606 | 40065 ft | 355 kts | 240° |
| 2026-05-07 19:12 | 31.25080 | -94.37440 | 40065 ft | 355 kts | 240° |
| 2026-05-07 19:12 | 31.22379 | -94.42277 | 40058 ft | 355 kts | 240° |
| 2026-05-07 19:13 | 31.20145 | -94.46272 | 40060 ft | 355 kts | 240° |
| 2026-05-07 19:13 | 31.17449 | -94.51090 | 40060 ft | 355 kts | 240° |
| 2026-05-07 19:14 | 31.14748 | -94.55909 | 40051 ft | 355 kts | 240° |
| 2026-05-07 19:14 | 31.12031 | -94.60753 | 40061 ft | 358 kts | 240° |
| 2026-05-07 19:15 | 31.09299 | -94.65616 | 40060 ft | 359 kts | 240° |
| 2026-05-07 19:15 | 31.06569 | -94.70469 | 40083 ft | 357 kts | 240° |
| 2026-05-07 19:16 | 31.03863 | -94.75274 | 40082 ft | 356 kts | 240° |
| 2026-05-07 19:16 | 31.01145 | -94.80093 | 40079 ft | 356 kts | 240° |
| 2026-05-07 19:17 | 30.98428 | -94.84907 | 40075 ft | 356 kts | 240° |
| 2026-05-07 19:17 | 30.95699 | -94.89735 | 40076 ft | 357 kts | 240° |
| 2026-05-07 19:18 | 30.92965 | -94.94565 | 40074 ft | 357 kts | 240° |
| 2026-05-07 19:18 | 30.90227 | -94.99397 | 40079 ft | 357 kts | 240° |
| 2026-05-07 19:19 | 30.87490 | -95.04221 | 40075 ft | 357 kts | 240° |
| 2026-05-07 19:19 | 30.84751 | -95.09043 | 40063 ft | 357 kts | 240° |
| 2026-05-07 19:20 | 30.82007 | -95.13868 | 40061 ft | 359 kts | 240° |
| 2026-05-07 19:20 | 30.79242 | -95.18724 | 40041 ft | 361 kts | 240° |
| 2026-05-07 19:21 | 30.76464 | -95.23597 | 40047 ft | 362 kts | 239° |
| 2026-05-07 19:21 | 30.73673 | -95.28486 | 40079 ft | 363 kts | 239° |
| 2026-05-07 19:22 | 30.70876 | -95.33381 | 40092 ft | 364 kts | 239° |
| 2026-05-07 19:22 | 30.68069 | -95.38285 | 40113 ft | 365 kts | 239° |
| 2026-05-07 19:23 | 30.65252 | -95.43202 | 40084 ft | 366 kts | 239° |
| 2026-05-07 19:23 | 30.62427 | -95.48125 | 40086 ft | 367 kts | 239° |
| 2026-05-07 19:24 | 30.59590 | -95.53066 | 39728 ft | 366 kts | 239° |
| 2026-05-07 19:24 | 30.58195 | -95.55488 | 39283 ft | 356 kts | 239° |
| 2026-05-07 19:24 | 30.56838 | -95.57843 | 38823 ft | 346 kts | 239° |
| 2026-05-07 19:25 | 30.55520 | -95.60136 | 38331 ft | 336 kts | 239° |
| 2026-05-07 19:25 | 30.54241 | -95.62357 | 37888 ft | 326 kts | 239° |
| 2026-05-07 19:25 | 30.53000 | -95.64511 | 37390 ft | 317 kts | 239° |
| 2026-05-07 19:25 | 30.51791 | -95.66608 | 36982 ft | 309 kts | 239° |
| 2026-05-07 19:26 | 30.50613 | -95.68650 | 36585 ft | 301 kts | 239° |
| 2026-05-07 19:26 | 30.49460 | -95.70649 | 36186 ft | 295 kts | 239° |
| 2026-05-07 19:26 | 30.48331 | -95.72604 | 35808 ft | 289 kts | 239° |
| 2026-05-07 19:26 | 30.47223 | -95.74523 | 35432 ft | 285 kts | 239° |
| 2026-05-07 19:27 | 30.46128 | -95.76420 | 35060 ft | 289 kts | 239° |
| 2026-05-07 19:27 | 30.45002 | -95.78369 | 34679 ft | 293 kts | 239° |
| 2026-05-07 19:27 | 30.43861 | -95.80340 | 34249 ft | 296 kts | 239° |
| 2026-05-07 19:27 | 30.42708 | -95.82331 | 33843 ft | 299 kts | 239° |
| 2026-05-07 19:28 | 30.41545 | -95.84340 | 33414 ft | 302 kts | 238° |
| 2026-05-07 19:28 | 30.40371 | -95.86366 | 32999 ft | 304 kts | 238° |
| 2026-05-07 19:28 | 30.39190 | -95.88404 | 32599 ft | 305 kts | 238° |
| 2026-05-07 19:28 | 30.38002 | -95.90452 | 32199 ft | 310 kts | 238° |
| 2026-05-07 19:29 | 30.36776 | -95.92568 | 31778 ft | 323 kts | 238° |
| 2026-05-07 19:29 | 30.35499 | -95.94768 | 31295 ft | 335 kts | 238° |
| 2026-05-07 19:29 | 30.34176 | -95.97045 | 30841 ft | 347 kts | 238° |
| 2026-05-07 19:29 | 30.32809 | -95.99393 | 30372 ft | 357 kts | 238° |
| 2026-05-07 19:30 | 30.31405 | -96.01806 | 29879 ft | 366 kts | 238° |
| 2026-05-07 19:30 | 30.29968 | -96.04277 | 29346 ft | 373 kts | 238° |
| 2026-05-07 19:30 | 30.28507 | -96.06784 | 28841 ft | 378 kts | 238° |
| 2026-05-07 19:30 | 30.27027 | -96.09322 | 28334 ft | 383 kts | 238° |
| 2026-05-07 19:31 | 30.25530 | -96.11889 | 27800 ft | 387 kts | 238° |
| 2026-05-07 19:31 | 30.24021 | -96.14478 | 27306 ft | 390 kts | 238° |
| 2026-05-07 19:31 | 30.22498 | -96.17087 | 26788 ft | 393 kts | 238° |
| 2026-05-07 19:31 | 30.20962 | -96.19714 | 26269 ft | 396 kts | 237° |
| 2026-05-07 19:32 | 30.19418 | -96.22355 | 25745 ft | 398 kts | 237° |
| 2026-05-07 19:32 | 30.17862 | -96.25014 | 25233 ft | 400 kts | 237° |
| 2026-05-07 19:32 | 30.16300 | -96.27684 | 24704 ft | 402 kts | 237° |
| 2026-05-07 19:32 | 30.14731 | -96.30363 | 24172 ft | 403 kts | 237° |
| 2026-05-07 19:33 | 30.13155 | -96.33051 | 23652 ft | 405 kts | 237° |
| 2026-05-07 19:33 | 30.11576 | -96.35743 | 23073 ft | 407 kts | 237° |
| 2026-05-07 19:33 | 30.09983 | -96.38457 | 22520 ft | 409 kts | 237° |
| 2026-05-07 19:33 | 30.08382 | -96.41183 | 21993 ft | 410 kts | 237° |
| 2026-05-07 19:34 | 30.06776 | -96.43914 | 21449 ft | 412 kts | 237° |
| 2026-05-07 19:34 | 30.05166 | -96.46651 | 20909 ft | 413 kts | 237° |
| 2026-05-07 19:34 | 30.03554 | -96.49392 | 20363 ft | 413 kts | 236° |
| 2026-05-07 19:34 | 30.01965 | -96.52156 | 19822 ft | 414 kts | 239° |
| 2026-05-07 19:35 | 30.00804 | -96.55191 | 19292 ft | 415 kts | 251° |
| 2026-05-07 19:35 | 30.00241 | -96.58465 | 18751 ft | 419 kts | 262° |
| 2026-05-07 19:35 | 30.00307 | -96.61840 | 18193 ft | 425 kts | 272° |
| 2026-05-07 19:35 | 30.00775 | -96.65199 | 17610 ft | 421 kts | 277° |
| 2026-05-07 19:36 | 30.01469 | -96.68447 | 17068 ft | 413 kts | 280° |
| 2026-05-07 19:36 | 30.02167 | -96.71625 | 16577 ft | 404 kts | 279° |
| 2026-05-07 19:36 | 30.02710 | -96.74713 | 16070 ft | 381 kts | 277° |
| 2026-05-07 19:36 | 30.03191 | -96.77653 | 15601 ft | 372 kts | 278° |
| 2026-05-07 19:37 | 30.03735 | -96.80591 | 15124 ft | 378 kts | 279° |
| 2026-05-07 19:37 | 30.04318 | -96.83571 | 14639 ft | 382 kts | 279° |
| 2026-05-07 19:37 | 30.04888 | -96.86583 | 14164 ft | 387 kts | 281° |
| 2026-05-07 19:37 | 30.05593 | -96.89590 | 13708 ft | 389 kts | 285° |
| 2026-05-07 19:38 | 30.06540 | -96.92518 | 13273 ft | 390 kts | 290° |
| 2026-05-07 19:38 | 30.07524 | -96.95386 | 12856 ft | 390 kts | 288° |
| 2026-05-07 19:38 | 30.08413 | -96.98396 | 12419 ft | 392 kts | 286° |
| 2026-05-07 19:38 | 30.09245 | -97.01399 | 11983 ft | 394 kts | 287° |
| 2026-05-07 19:39 | 30.10134 | -97.04359 | 11551 ft | 396 kts | 288° |
| 2026-05-07 19:39 | 30.10932 | -97.07401 | 11100 ft | 397 kts | 279° |
| 2026-05-07 19:39 | 30.11141 | -97.10575 | 10588 ft | 398 kts | 270° |
| 2026-05-07 19:39 | 30.11035 | -97.13818 | 10044 ft | 400 kts | 265° |
| 2026-05-07 19:40 | 30.10746 | -97.16932 | 10029 ft | 389 kts | 264° |
| 2026-05-07 19:40 | 30.10514 | -97.20012 | 9336 ft | 379 kts | 266° |
| 2026-05-07 19:40 | 30.10411 | -97.22822 | 7812 ft | 295 kts | 268° |
| 2026-05-07 19:40 | 30.10330 | -97.25091 | 6369 ft | 291 kts | 265° |
| 2026-05-07 19:41 | 30.10199 | -97.27386 | 5845 ft | 279 kts | 265° |
| 2026-05-07 19:41 | 30.10065 | -97.29657 | 5545 ft | 282 kts | 266° |
| 2026-05-07 19:41 | 30.09933 | -97.31891 | 5518 ft | 276 kts | 265° |
| 2026-05-07 19:41 | 30.09793 | -97.34136 | 5526 ft | 284 kts | 266° |
| 2026-05-07 19:42 | 30.09679 | -97.36434 | 5527 ft | 289 kts | 266° |
| 2026-05-07 19:42 | 30.09572 | -97.38761 | 5535 ft | 292 kts | 266° |
| 2026-05-07 19:42 | 30.09454 | -97.41106 | 5483 ft | 296 kts | 266° |
| 2026-05-07 19:42 | 30.09326 | -97.43552 | 5075 ft | 313 kts | 266° |
| 2026-05-07 19:43 | 30.09195 | -97.46121 | 4629 ft | 328 kts | 266° |
| 2026-05-07 19:43 | 30.09061 | -97.48796 | 4212 ft | 339 kts | 267° |
| 2026-05-07 19:43 | 30.08888 | -97.51509 | 4092 ft | 339 kts | 262° |
| 2026-05-07 19:43 | 30.08080 | -97.54034 | 4018 ft | 337 kts | 236° |
| 2026-05-07 19:44 | 30.06369 | -97.55820 | 4012 ft | 333 kts | 207° |
| 2026-05-07 19:44 | 30.04221 | -97.56615 | 4002 ft | 310 kts | 186° |
| 2026-05-07 19:44 | 30.02215 | -97.56546 | 4039 ft | 268 kts | 166° |
| 2026-05-07 19:44 | 30.00573 | -97.56134 | 4772 ft | 226 kts | 170° |
| 2026-05-07 19:45 | 29.99017 | -97.56129 | 5272 ft | 220 kts | 191° |
| 2026-05-07 19:45 | 29.97560 | -97.56789 | 5604 ft | 236 kts | 213° |
| 2026-05-07 19:45 | 29.96375 | -97.58182 | 5515 ft | 253 kts | 238° |
| 2026-05-07 19:45 | 29.95801 | -97.60096 | 5269 ft | 252 kts | 263° |
| 2026-05-07 19:46 | 29.95994 | -97.62101 | 4967 ft | 255 kts | 289° |
| 2026-05-07 19:46 | 29.96796 | -97.63950 | 4635 ft | 262 kts | 297° |
| 2026-05-07 19:46 | 29.97746 | -97.65740 | 4317 ft | 259 kts | 315° |
| 2026-05-07 19:46 | 29.99235 | -97.66781 | 4087 ft | 248 kts | 342° |
| 2026-05-07 19:47 | 30.00848 | -97.67428 | 3848 ft | 243 kts | 343° |
| 2026-05-07 19:47 | 30.02420 | -97.67744 | 4053 ft | 215 kts | 8° |
| 2026-05-07 19:47 | 30.03933 | -97.67259 | 4135 ft | 239 kts | 20° |
| 2026-05-07 19:47 | 30.05534 | -97.66610 | 4032 ft | 247 kts | 21° |
| 2026-05-07 19:48 | 30.07158 | -97.66077 | 3749 ft | 235 kts | 18° |
| 2026-05-07 19:48 | 30.08678 | -97.65564 | 3451 ft | 222 kts | 14° |
| 2026-05-07 19:48 | 30.10181 | -97.65561 | 3084 ft | 208 kts | 358° |
| 2026-05-07 19:48 | 30.11488 | -97.65679 | 2441 ft | 167 kts | 3° |
| 2026-05-07 19:49 | 30.12606 | -97.65665 | 2091 ft | 153 kts | 6° |
| 2026-05-07 19:49 | 30.13613 | -97.65604 | 1794 ft | 140 kts | 5° |
| 2026-05-07 19:49 | 30.14541 | -97.65668 | 1408 ft | 127 kts | 360° |
| 2026-05-07 19:49 | 30.15333 | -97.65692 | 1171 ft | 106 kts | 5° |
| 2026-05-07 19:50 | 30.16070 | -97.65675 | 906 ft | 103 kts | 2° |
| 2026-05-07 19:50 | 30.16760 | -97.65700 | 753 ft | 97 kts | 2° |
| 2026-05-07 19:50 | 30.17469 | -97.65712 | 639 ft | 101 kts | 1° |
| 2026-05-07 19:50 | 30.18190 | -97.65734 | 529 ft | 98 kts | 359° |
| 2026-05-07 19:51 | 30.18728 | -97.65749 | 522 ft | 53 kts | 359° |
| 2026-05-07 19:51 | 30.18904 | -97.65773 | 522 ft | 12 kts | 278° |
| 2026-05-07 19:51 | 30.18833 | -97.65826 | 522 ft | 14 kts | 224° |
| 2026-05-07 19:51 | 30.18807 | -97.65940 | 521 ft | 17 kts | 268° |
| 2026-05-07 19:52 | 30.18806 | -97.66051 | 521 ft | 15 kts | 270° |
| 2026-05-07 19:52 | 30.18826 | -97.66160 | 521 ft | 15 kts | 323° |
| 2026-05-07 19:52 | 30.18818 | -97.66207 | 521 ft | 0 kts | 174° |